Time;durP1;ratioP1;P1;durP2;ratioP2;P2;SDS_P1;SDS_P2;PMS_P1;PMS_P2;Temp;Humidity;BMP_temperature;BMP_pressure;BME280_temperature;BME280_humidity;BME280_pressure;Samples;Min_cycle;Max_cycle;Signal;HPM_P1;HPM_P2
2023/12/30 00:01:48;;;;;;;0.50;0.43;;;;;;;10.67;47.10;101483.66;6093526;23;20904;-87
2023/12/30 00:04:14;;;;;;;0.83;0.37;;;;;;;10.59;46.99;101483.56;6092198;23;20428;-86
2023/12/30 00:06:40;;;;;;;0.30;0.30;;;;;;;10.58;47.12;101480.09;6093240;23;20842;-88
2023/12/30 00:09:06;;;;;;;1.00;0.50;;;;;;;10.64;47.03;101482.16;6068942;23;20521;-87
2023/12/30 00:11:32;;;;;;;0.10;0.10;;;;;;;10.60;47.07;101480.78;6091840;23;20456;-87
2023/12/30 00:13:58;;;;;;;0.30;0.30;;;;;;;10.59;47.34;101484.44;6098727;23;20373;-87
2023/12/30 00:16:27;;;;;;;0.22;0.22;;;;;;;10.67;46.81;101478.38;6106108;23;20372;-84
2023/12/30 00:18:52;;;;;;;0.40;0.40;;;;;;;10.65;46.94;101475.03;6090075;23;20406;-85
2023/12/30 00:21:19;;;;;;;0.20;0.20;;;;;;;10.67;46.83;101473.06;6084117;23;20379;-86
2023/12/30 00:23:45;;;;;;;0.35;0.35;;;;;;;10.62;47.06;101472.69;6040951;23;20355;-87
2023/12/30 00:26:24;;;;;;;0.25;0.25;;;;;;;10.59;46.87;101467.66;6063838;23;20697;-86
2023/12/30 00:28:51;;;;;;;0.30;0.30;;;;;;;10.57;47.18;101474.94;6064398;23;20375;-85
2023/12/30 00:31:27;;;;;;;0.40;0.40;;;;;;;10.63;46.88;101479.66;6066410;23;20355;-87
2023/12/30 00:33:57;;;;;;;0.40;0.40;;;;;;;10.61;46.99;101468.38;6041810;23;20359;-84
2023/12/30 00:36:22;;;;;;;0.20;0.20;;;;;;;10.59;47.20;101470.31;6043809;23;20368;-84
2023/12/30 00:38:48;;;;;;;3.00;0.60;;;;;;;10.61;46.93;101473.69;6084457;23;20500;-89
2023/12/30 00:41:14;;;;;;;1.30;0.68;;;;;;;10.52;47.08;101472.75;6075592;23;20952;-86
2023/12/30 00:43:43;;;;;;;0.30;0.30;;;;;;;10.59;47.25;101470.31;6063963;23;20371;-87
2023/12/30 00:46:09;;;;;;;0.35;0.35;;;;;;;10.60;47.04;101472.00;6063126;23;20363;-88
2023/12/30 00:48:35;;;;;;;0.20;0.20;;;;;;;10.59;47.19;101483.56;6038097;23;20370;-87
2023/12/30 00:51:01;;;;;;;0.30;0.30;;;;;;;10.63;47.27;101484.97;6061477;23;20360;-87
2023/12/30 00:53:33;;;;;;;0.40;0.40;;;;;;;10.61;47.35;101477.16;6038042;23;20858;-86
2023/12/30 00:55:59;;;;;;;0.40;0.40;;;;;;;10.63;47.15;101479.66;6063338;23;20359;-88
2023/12/30 00:58:25;;;;;;;0.20;0.20;;;;;;;10.63;47.16;101477.00;6063244;23;20366;-87
2023/12/30 01:00:51;;;;;;;0.30;0.30;;;;;;;10.64;46.73;101476.88;6063375;23;20371;-89
2023/12/30 01:03:17;;;;;;;0.20;0.20;;;;;;;10.62;46.87;101468.19;6065690;23;20356;-88
2023/12/30 01:05:47;;;;;;;0.20;0.20;;;;;;;10.59;46.97;101459.72;6064412;23;20430;-88
2023/12/30 01:08:12;;;;;;;0.10;0.10;;;;;;;10.57;46.84;101470.50;6064887;23;20370;-89
2023/12/30 01:10:38;;;;;;;0.30;0.30;;;;;;;10.62;46.98;101467.38;6063814;23;21077;-88
2023/12/30 01:13:08;;;;;;;0.30;0.30;;;;;;;10.67;47.03;101467.75;6065140;23;20408;-88
2023/12/30 01:15:35;;;;;;;0.30;0.22;;;;;;;10.71;47.02;101474.41;6040372;23;20371;-88
2023/12/30 01:18:02;;;;;;;0.30;0.30;;;;;;;10.68;46.80;101462.31;6065636;23;20359;-88
2023/12/30 01:20:28;;;;;;;0.43;0.43;;;;;;;10.75;46.86;101472.28;6063652;23;20462;-89
2023/12/30 01:22:53;;;;;;;0.60;0.50;;;;;;;10.74;46.97;101458.22;6093122;23;20413;-89
2023/12/30 01:25:19;;;;;;;0.60;0.60;;;;;;;10.83;46.58;101470.53;6094640;23;20437;-90
2023/12/30 01:27:45;;;;;;;0.60;0.60;;;;;;;10.81;46.65;101461.09;6075344;23;20397;-89
2023/12/30 01:30:11;;;;;;;0.30;0.30;;;;;;;10.83;46.49;101456.47;6104544;23;20417;-87
2023/12/30 01:32:39;;;;;;;0.40;0.25;;;;;;;10.79;46.94;101458.59;6096612;23;20362;-87
2023/12/30 01:35:05;;;;;;;0.40;0.40;;;;;;;10.79;46.70;101455.13;6094716;23;20354;-87
2023/12/30 01:37:31;;;;;;;0.43;0.40;;;;;;;10.74;46.90;101444.94;6099470;23;20361;-91
2023/12/30 01:40:00;;;;;;;0.40;0.40;;;;;;;10.71;46.92;101453.19;6096036;23;20448;-88
2023/12/30 01:42:25;;;;;;;0.20;0.20;;;;;;;10.75;47.01;101459.88;6094118;23;20916;-88
2023/12/30 01:44:51;;;;;;;0.50;0.40;;;;;;;10.76;46.90;101452.75;6092611;23;20365;-89
2023/12/30 01:47:17;;;;;;;0.23;0.23;;;;;;;10.78;46.63;101451.59;6092417;23;20710;-89
2023/12/30 01:49:44;;;;;;;0.20;0.20;;;;;;;10.69;47.17;101455.19;6092335;23;20366;-89
2023/12/30 01:52:11;;;;;;;1.40;0.50;;;;;;;10.71;47.10;101455.84;6068557;23;20364;-90
2023/12/30 01:54:39;;;;;;;0.75;0.60;;;;;;;10.67;46.57;101455.31;6092869;23;20405;-88
2023/12/30 01:57:06;;;;;;;0.50;0.40;;;;;;;10.68;46.94;101445.56;6068605;23;20437;-88
2023/12/30 01:59:32;;;;;;;0.20;0.20;;;;;;;10.59;46.92;101444.66;6092379;23;20785;-89
2023/12/30 02:01:59;;;;;;;0.20;0.20;;;;;;;10.64;46.88;101442.38;6093534;23;20432;-88
2023/12/30 02:04:25;;;;;;;0.10;0.10;;;;;;;10.65;47.05;101448.53;6095340;23;20366;-88
2023/12/30 02:06:50;;;;;;;0.10;0.10;;;;;;;10.67;46.94;101446.53;6074326;23;20402;-89
2023/12/30 02:09:16;;;;;;;0.17;0.17;;;;;;;10.64;46.68;101439.75;6111360;23;20362;-90
2023/12/30 02:11:45;;;;;;;0.57;0.57;;;;;;;10.61;47.03;101445.34;6090342;23;20374;-91
2023/12/30 02:14:30;;;;;;;0.20;0.20;;;;;;;10.56;47.05;101437.00;6085758;23;20366;-89
2023/12/30 02:16:57;;;;;;;0.30;0.30;;;;;;;10.59;47.12;101442.00;6082841;23;20369;-90
2023/12/30 02:19:23;;;;;;;0.60;0.60;;;;;;;10.60;47.02;101446.31;6086985;23;20382;-90
2023/12/30 02:21:50;;;;;;;0.30;0.30;;;;;;;10.55;46.86;101426.53;6070239;23;20466;-89
2023/12/30 02:24:17;;;;;;;0.28;0.28;;;;;;;10.65;46.90;101443.22;6054495;23;20355;-88
2023/12/30 02:26:42;;;;;;;0.85;0.50;;;;;;;10.63;47.09;101446.00;6080250;23;20520;-86
2023/12/30 02:29:09;;;;;;;1.00;0.57;;;;;;;10.67;46.88;101450.03;6074362;23;20626;-89
2023/12/30 02:31:46;;;;;;;0.50;0.50;;;;;;;10.56;47.16;101446.78;6062937;23;20367;-87
2023/12/30 02:34:18;;;;;;;0.20;0.20;;;;;;;10.43;47.52;101437.38;6065296;23;20502;-89
2023/12/30 02:36:45;;;;;;;0.40;0.40;;;;;;;10.44;47.31;101440.88;6065940;23;20387;-89
2023/12/30 02:39:12;;;;;;;0.15;0.15;;;;;;;10.35;47.58;101437.28;6069015;23;20470;-88
2023/12/30 02:41:38;;;;;;;0.30;0.25;;;;;;;10.29;47.92;101435.22;6073174;23;20359;-89
2023/12/30 02:44:04;;;;;;;0.85;0.47;;;;;;;10.22;47.92;101431.50;6080450;23;20367;-89
2023/12/30 02:46:32;;;;;;;0.20;0.20;;;;;;;10.23;47.99;101433.19;6087709;23;20388;-89
2023/12/30 02:49:03;;;;;;;0.20;0.20;;;;;;;10.22;47.85;101436.81;6088767;23;20372;-90
2023/12/30 02:51:29;;;;;;;1.38;1.33;;;;;;;10.28;47.81;101441.50;6068770;23;20371;-89
2023/12/30 02:53:58;;;;;;;0.63;0.50;;;;;;;10.24;47.97;101434.84;6066490;23;20437;-89
2023/12/30 02:56:26;;;;;;;0.50;0.50;;;;;;;10.20;48.44;101439.59;6064796;23;20966;-90
2023/12/30 02:59:00;;;;;;;0.43;0.40;;;;;;;10.10;48.30;101425.56;6064875;23;20380;-88
2023/12/30 03:01:27;;;;;;;0.60;0.60;;;;;;;10.20;48.00;101444.09;6064729;23;20450;-89
2023/12/30 03:03:58;;;;;;;0.52;0.52;;;;;;;10.24;47.97;101440.13;6065877;23;20363;-89
2023/12/30 03:06:24;;;;;;;0.30;0.30;;;;;;;10.30;48.01;101439.56;6067514;23;20835;-89
2023/12/30 03:08:50;;;;;;;0.20;0.20;;;;;;;10.30;47.87;101439.56;6070049;23;20367;-89
2023/12/30 03:11:17;;;;;;;0.47;0.40;;;;;;;10.22;47.80;101427.03;6055369;23;20367;-87
2023/12/30 03:13:42;;;;;;;0.45;0.43;;;;;;;10.27;47.65;101431.91;6055704;23;20866;-89
2023/12/30 03:16:11;;;;;;;0.20;0.20;;;;;;;10.36;47.58;101430.19;6040249;23;20371;-88
2023/12/30 03:18:40;;;;;;;0.20;0.20;;;;;;;10.39;47.36;101429.88;6082600;23;20491;-87
2023/12/30 03:21:08;;;;;;;0.40;0.30;;;;;;;10.41;47.55;101430.59;6064812;23;20415;-90
2023/12/30 03:23:38;;;;;;;0.20;0.20;;;;;;;10.43;47.62;101441.88;6063126;23;20506;-87
2023/12/30 03:26:04;;;;;;;0.40;0.40;;;;;;;10.38;47.66;101441.47;6051127;23;20386;-89
2023/12/30 03:28:33;;;;;;;2.85;1.20;;;;;;;10.31;47.77;101444.72;6061740;23;21015;-90
2023/12/30 03:30:59;;;;;;;1.40;0.30;;;;;;;10.35;47.83;101437.28;6037873;23;20411;-87
2023/12/30 03:33:25;;;;;;;0.77;0.50;;;;;;;10.36;47.61;101438.16;6036465;23;21127;-88
2023/12/30 03:35:53;;;;;;;0.25;0.25;;;;;;;10.33;47.69;101445.44;6060570;23;20374;-88
2023/12/30 03:38:21;;;;;;;0.20;0.20;;;;;;;10.29;47.65;101437.88;6063578;23;20378;-92
2023/12/30 03:40:47;;;;;;;0.32;0.30;;;;;;;10.28;48.35;101455.59;6066545;23;20947;-92
2023/12/30 03:43:14;;;;;;;0.30;0.20;;;;;;;10.21;48.32;101438.63;6040632;23;20378;-91
2023/12/30 03:45:42;;;;;;;0.15;0.15;;;;;;;10.28;47.84;101442.34;6063516;23;20375;-90
2023/12/30 03:48:10;;;;;;;0.20;0.20;;;;;;;10.42;47.58;101448.97;6039981;23;20438;-92
2023/12/30 03:50:37;;;;;;;5.10;0.60;;;;;;;10.40;47.39;101450.09;6064958;23;20370;-91
2023/12/30 03:53:06;;;;;;;0.47;0.40;;;;;;;10.32;47.81;101434.97;6067785;23;20371;-89
2023/12/30 03:55:32;;;;;;;0.90;0.65;;;;;;;10.42;47.49;101446.31;6072002;23;20374;-90
2023/12/30 03:57:57;;;;;;;0.30;0.20;;;;;;;10.48;47.48;101451.03;6076685;23;20371;-89
2023/12/30 04:00:23;;;;;;;0.60;0.30;;;;;;;10.48;47.66;101452.84;6074174;23;20379;-89
2023/12/30 04:02:49;;;;;;;0.77;0.50;;;;;;;10.44;47.77;101446.16;6076741;23;20367;-91
2023/12/30 04:05:15;;;;;;;0.27;0.23;;;;;;;10.50;47.44;101445.56;6078536;23;20371;-90
2023/12/30 04:07:40;;;;;;;0.20;0.20;;;;;;;10.45;47.31;101439.91;6077902;23;20394;-90
2023/12/30 04:10:07;;;;;;;0.40;0.30;;;;;;;10.47;47.31;101445.88;6077254;23;20363;-91
2023/12/30 04:12:35;;;;;;;0.50;0.30;;;;;;;10.47;47.35;101456.47;6074918;23;20399;-91
2023/12/30 04:15:02;;;;;;;0.50;0.30;;;;;;;10.52;47.47;101460.34;6076365;23;20378;-91
2023/12/30 04:17:27;;;;;;;1.00;1.00;;;;;;;10.48;47.41;101456.31;6052008;23;20678;-91
2023/12/30 04:19:55;;;;;;;0.10;0.10;;;;;;;10.50;47.53;101446.41;6071625;23;20431;-91
2023/12/30 04:22:21;;;;;;;0.20;0.20;;;;;;;10.55;47.26;101453.06;6069008;23;20363;-91
2023/12/30 04:24:49;;;;;;;0.30;0.30;;;;;;;10.52;47.31;101454.22;6087108;23;20403;-91
2023/12/30 04:27:17;;;;;;;0.85;0.30;;;;;;;10.48;47.52;101444.91;6089099;23;20375;-95
2023/12/30 04:29:43;;;;;;;0.50;0.50;;;;;;;10.45;47.16;101455.78;6086676;23;20411;-95
2023/12/30 04:32:11;;;;;;;0.30;0.30;;;;;;;10.38;47.69;101449.44;6086801;23;20396;-95
2023/12/30 04:34:42;;;;;;;0.25;0.25;;;;;;;10.42;47.63;101458.75;6043558;23;20394;-91
2023/12/30 04:37:08;;;;;;;0.90;0.73;;;;;;;10.49;47.17;101465.94;6064563;23;21397;-87
2023/12/30 04:39:34;;;;;;;0.70;0.50;;;;;;;10.40;47.61;101456.22;6067462;23;20387;-88
2023/12/30 04:41:59;;;;;;;0.50;0.50;;;;;;;10.35;47.62;101449.72;6065683;23;20399;-88
2023/12/30 04:44:25;;;;;;;0.30;0.30;;;;;;;10.37;47.63;101453.06;6067957;23;20386;-87
2023/12/30 04:46:51;;;;;;;0.28;0.28;;;;;;;10.43;47.46;101457.78;6065975;23;20419;-87
2023/12/30 04:49:19;;;;;;;0.47;0.47;;;;;;;10.39;47.59;101465.19;6080140;23;20374;-86
2023/12/30 04:51:45;;;;;;;0.35;0.35;;;;;;;10.33;47.65;101458.66;6067582;23;20410;-90
2023/12/30 04:54:11;;;;;;;0.28;0.28;;;;;;;10.42;47.48;101472.81;6067910;23;20387;-91
2023/12/30 04:56:36;;;;;;;0.60;0.60;;;;;;;10.41;47.32;101460.56;6064495;23;20382;-91
2023/12/30 04:59:05;;;;;;;0.87;0.87;;;;;;;10.40;47.40;101463.34;6066226;23;20387;-90
2023/12/30 05:01:31;;;;;;;0.77;0.77;;;;;;;10.43;47.60;101468.38;6066698;23;20375;-90
2023/12/30 05:03:56;;;;;;;0.82;0.82;;;;;;;10.40;47.86;101468.66;6067121;23;20371;-90
2023/12/30 05:06:24;;;;;;;0.67;0.57;;;;;;;10.39;47.57;101465.19;6067404;23;20360;-89
2023/12/30 05:08:51;;;;;;;0.30;0.30;;;;;;;10.52;47.64;101462.97;6042034;23;20480;-90
2023/12/30 05:11:17;;;;;;;0.20;0.20;;;;;;;10.55;47.39;101461.00;6066615;23;20368;-90
2023/12/30 05:13:43;;;;;;;1.38;1.27;;;;;;;10.56;47.44;101468.81;6065814;23;20439;-87
2023/12/30 05:16:09;;;;;;;0.32;0.32;;;;;;;10.49;47.24;101468.56;6039905;23;20398;-88
2023/12/30 05:18:37;;;;;;;1.20;1.10;;;;;;;10.41;47.57;101467.69;6067475;23;20359;-89
2023/12/30 05:21:03;;;;;;;0.82;0.82;;;;;;;10.39;47.66;101478.44;6039589;23;20383;-88
2023/12/30 05:23:34;;;;;;;0.35;0.35;;;;;;;10.30;47.99;101479.31;6064794;23;20366;-88
2023/12/30 05:25:59;;;;;;;0.75;0.75;;;;;;;10.25;48.04;101486.88;6075647;23;20367;-87
2023/12/30 05:28:25;;;;;;;1.15;1.13;;;;;;;10.19;48.21;101496.25;6085575;23;20367;-87
2023/12/30 05:30:51;;;;;;;0.53;0.53;;;;;;;10.16;48.14;101487.75;6061282;23;20372;-91
2023/12/30 05:33:16;;;;;;;1.17;1.07;;;;;;;10.20;48.05;101484.66;6068000;23;20397;-89
2023/12/30 05:35:42;;;;;;;0.70;0.70;;;;;;;10.23;47.81;101499.44;6067905;23;20363;-88
2023/12/30 05:38:12;;;;;;;0.55;0.55;;;;;;;10.15;48.29;101497.50;6068676;23;20485;-88
2023/12/30 05:40:39;;;;;;;1.00;0.95;;;;;;;10.23;47.90;101502.91;6067958;23;20382;-91
2023/12/30 05:43:06;;;;;;;0.50;0.50;;;;;;;10.34;47.75;101507.19;6073122;23;20375;-89
2023/12/30 05:45:32;;;;;;;0.50;0.30;;;;;;;10.39;47.63;101498.78;6073515;23;20371;-89
2023/12/30 05:47:57;;;;;;;0.30;0.30;;;;;;;10.38;47.76;101503.25;6089431;23;20434;-89
2023/12/30 05:50:23;;;;;;;1.80;0.80;;;;;;;10.41;47.57;101502.97;6090770;23;20371;-90
2023/12/30 05:52:49;;;;;;;0.40;0.40;;;;;;;10.46;47.70;101506.00;6091361;23;20378;-88
2023/12/30 05:55:14;;;;;;;0.43;0.43;;;;;;;10.45;47.76;101503.50;6091451;23;20366;-90
2023/12/30 05:57:40;;;;;;;0.40;0.40;;;;;;;10.48;47.47;101498.75;6090644;23;20403;-90
2023/12/30 06:00:09;;;;;;;0.28;0.28;;;;;;;10.51;47.48;101498.44;6082956;23;20375;-90
2023/12/30 06:02:36;;;;;;;0.30;0.30;;;;;;;10.58;47.20;101503.97;6073364;23;20439;-91
2023/12/30 06:05:02;;;;;;;1.20;0.40;;;;;;;10.56;47.67;101508.59;6072262;23;20367;-90
2023/12/30 06:07:28;;;;;;;0.20;0.20;;;;;;;10.61;47.43;101508.16;6070455;23;20378;-89
2023/12/30 06:09:53;;;;;;;0.40;0.40;;;;;;;10.58;47.57;101509.25;6068773;23;20680;-90
2023/12/30 06:12:21;;;;;;;0.60;0.40;;;;;;;10.58;47.36;101511.91;6072511;23;20375;-89
2023/12/30 06:14:47;;;;;;;0.35;0.35;;;;;;;10.62;47.35;101512.44;6068948;23;20401;-88
2023/12/30 06:17:12;;;;;;;0.20;0.20;;;;;;;10.62;47.67;101509.78;6042150;23;20367;-90
2023/12/30 06:19:38;;;;;;;0.50;0.50;;;;;;;10.58;47.42;101516.38;6064053;23;20447;-89
2023/12/30 06:22:04;;;;;;;0.10;0.10;;;;;;;10.62;47.86;101515.91;6065822;23;20427;-88
2023/12/30 06:24:31;;;;;;;0.30;0.30;;;;;;;10.72;47.59;101515.88;6065523;23;20363;-89
2023/12/30 06:26:57;;;;;;;0.50;0.50;;;;;;;10.85;47.15;101511.00;6064899;23;20367;-89
2023/12/30 06:29:23;;;;;;;0.60;0.60;;;;;;;10.87;47.02;101508.22;6040852;23;20763;-89
2023/12/30 06:31:48;;;;;;;0.45;0.45;;;;;;;10.94;47.06;101513.75;6065292;23;20794;-89
2023/12/30 06:34:14;;;;;;;0.30;0.30;;;;;;;10.96;47.11;101520.56;6064372;23;20374;-89
2023/12/30 06:36:41;;;;;;;0.65;0.65;;;;;;;10.99;47.18;101514.13;6067895;23;20375;-90
2023/12/30 06:39:08;;;;;;;0.20;0.20;;;;;;;11.09;46.95;101522.81;6070653;23;20379;-92
2023/12/30 06:41:34;;;;;;;0.63;0.60;;;;;;;11.13;47.06;101520.69;6043428;23;20381;-90
2023/12/30 06:43:59;;;;;;;0.65;0.65;;;;;;;11.22;46.66;101531.22;6071825;23;20367;-90
2023/12/30 06:46:28;;;;;;;0.70;0.70;;;;;;;11.27;46.79;101541.38;6067326;23;20854;-91
2023/12/30 06:48:54;;;;;;;0.73;0.73;;;;;;;11.21;46.74;101534.03;6070111;23;20364;-94
2023/12/30 06:51:19;;;;;;;0.40;0.40;;;;;;;11.31;46.66;101540.09;6068892;23;20374;-91
2023/12/30 06:53:45;;;;;;;0.30;0.30;;;;;;;11.28;46.68;101533.25;6069906;23;20356;-93
2023/12/30 06:56:11;;;;;;;0.60;0.57;;;;;;;11.37;46.66;101539.47;6066102;23;20426;-93
2023/12/30 06:58:41;;;;;;;0.47;0.47;;;;;;;11.38;46.75;101534.97;6069523;23;20363;-92
2023/12/30 07:01:07;;;;;;;0.55;0.55;;;;;;;11.46;46.83;101535.88;6043992;23;20371;-93
2023/12/30 07:03:33;;;;;;;0.30;0.30;;;;;;;11.54;46.38;101540.44;6072503;23;20387;-92
2023/12/30 07:05:59;;;;;;;1.35;0.93;;;;;;;11.62;46.43;101548.44;6045332;23;20372;-88
2023/12/30 07:08:24;;;;;;;0.70;0.50;;;;;;;11.58;46.38;101555.03;6100145;23;20406;-90
2023/12/30 07:10:50;;;;;;;0.90;0.50;;;;;;;11.61;46.57;101552.09;6041619;23;20405;-90
2023/12/30 07:13:18;;;;;;;0.20;0.20;;;;;;;11.69;46.25;101555.78;6066366;23;20371;-90
2023/12/30 07:15:47;;;;;;;0.30;0.30;;;;;;;11.73;46.24;101550.00;6075364;23;20440;-92
2023/12/30 07:18:16;;;;;;;0.60;0.60;;;;;;;11.86;46.07;101560.19;6072108;23;20854;-93
2023/12/30 07:20:44;;;;;;;0.50;0.50;;;;;;;11.80;46.11;101552.84;6071743;23;20395;-92
2023/12/30 07:23:09;;;;;;;0.60;0.60;;;;;;;11.95;45.94;101553.94;6069395;23;20673;-93
2023/12/30 07:25:36;;;;;;;0.40;0.40;;;;;;;11.92;45.97;101548.13;6044127;23;20425;-90
2023/12/30 07:28:04;;;;;;;0.80;0.80;;;;;;;12.12;45.81;101577.94;6072322;23;20827;-94
2023/12/30 07:30:35;;;;;;;0.22;0.22;;;;;;;12.15;45.60;101570.50;6072348;23;20370;-92
2023/12/30 07:33:02;;;;;;;0.30;0.30;;;;;;;12.21;45.49;101577.03;6069799;23;20434;-91
2023/12/30 07:35:29;;;;;;;0.52;0.52;;;;;;;12.21;45.68;101566.38;6074622;23;20387;-91
2023/12/30 07:37:55;;;;;;;0.30;0.30;;;;;;;12.22;45.35;101570.69;6090318;23;20360;-91
2023/12/30 07:40:21;;;;;;;0.90;0.80;;;;;;;12.30;45.48;101567.22;6091200;23;20415;-91
2023/12/30 07:42:47;;;;;;;0.30;0.30;;;;;;;12.42;45.28;101571.25;6078555;23;20412;-90
2023/12/30 07:45:16;;;;;;;0.20;0.20;;;;;;;12.36;45.38;101564.78;6071003;23;20359;-92
2023/12/30 07:47:43;;;;;;;0.60;0.60;;;;;;;12.45;45.34;101565.63;6070587;23;20448;-89
2023/12/30 07:50:10;;;;;;;0.20;0.20;;;;;;;12.47;45.14;101565.47;6070172;23;20921;-92
2023/12/30 07:52:36;;;;;;;0.38;0.38;;;;;;;12.54;45.12;101580.63;6076263;23;20412;-90
2023/12/30 07:55:02;;;;;;;0.75;0.75;;;;;;;12.61;45.30;101581.63;6074675;23;20438;-90
2023/12/30 07:57:27;;;;;;;0.50;0.50;;;;;;;12.57;45.36;101574.97;6055078;23;20371;-88
2023/12/30 07:59:55;;;;;;;0.25;0.20;;;;;;;13.07;46.20;101567.06;6078272;23;20428;-92
2023/12/30 08:02:23;;;;;;;0.20;0.20;;;;;;;13.23;45.23;101569.75;6092641;23;20412;-90
2023/12/30 08:04:48;;;;;;;0.30;0.28;;;;;;;13.10;44.93;101572.91;6072020;23;20412;-88
2023/12/30 08:07:14;;;;;;;1.05;1.00;;;;;;;13.05;44.70;101579.72;6069115;23;20355;-90
2023/12/30 08:09:40;;;;;;;1.35;0.80;;;;;;;12.92;44.35;101569.56;6044172;23;20355;-89
2023/12/30 08:12:06;;;;;;;0.28;0.28;;;;;;;13.11;44.49;101590.56;6044661;23;20371;-90
2023/12/30 08:14:34;;;;;;;0.40;0.40;;;;;;;13.16;44.34;101585.56;6072016;23;20362;-91
2023/12/30 08:17:01;;;;;;;1.85;1.08;;;;;;;13.17;44.69;101586.41;6073164;23;20431;-91
2023/12/30 08:19:27;;;;;;;0.90;0.90;;;;;;;13.10;45.02;101582.72;6073579;23;20394;-91
2023/12/30 08:21:53;;;;;;;0.20;0.20;;;;;;;13.16;44.33;101588.22;6070332;23;20439;-90
2023/12/30 08:24:19;;;;;;;0.80;0.30;;;;;;;13.13;44.08;101585.88;6068968;23;20367;-91
2023/12/30 08:26:45;;;;;;;0.30;0.30;;;;;;;13.30;43.55;101581.38;6045090;23;20367;-90
2023/12/30 08:29:14;;;;;;;1.63;0.85;;;;;;;13.28;43.52;101585.22;6068774;23;20522;-89
2023/12/30 08:31:45;;;;;;;0.30;0.30;;;;;;;13.41;43.40;101584.75;6047740;23;20449;-87
2023/12/30 08:34:17;;;;;;;0.60;0.60;;;;;;;13.56;43.64;101583.09;6070592;23;20387;-89
2023/12/30 08:36:43;;;;;;;1.90;1.10;;;;;;;13.56;43.19;101591.09;6045297;23;20613;-91
2023/12/30 08:39:09;;;;;;;0.30;0.30;;;;;;;13.52;43.83;101587.94;6072189;23;20390;-89
2023/12/30 08:41:35;;;;;;;0.70;0.70;;;;;;;13.68;43.80;101599.53;6044985;23;20371;-92
2023/12/30 08:44:02;;;;;;;0.60;0.60;;;;;;;13.68;43.32;101589.72;6065992;23;20363;-91
2023/12/30 08:46:28;;;;;;;0.30;0.30;;;;;;;13.73;43.16;101587.38;6066979;23;20881;-88
2023/12/30 08:48:56;;;;;;;0.40;0.40;;;;;;;13.82;42.98;101593.53;6064523;23;20367;-89
2023/12/30 08:51:23;;;;;;;0.40;0.40;;;;;;;13.86;42.93;101592.19;6063664;23;20367;-89
2023/12/30 08:53:49;;;;;;;0.73;0.70;;;;;;;13.98;42.79;101589.19;6065093;23;20379;-88
2023/12/30 08:56:14;;;;;;;0.40;0.40;;;;;;;13.90;42.68;101584.69;6067928;23;20757;-87
2023/12/30 08:58:40;;;;;;;2.85;2.42;;;;;;;13.88;42.83;101592.00;6066573;23;20437;-87
2023/12/30 09:01:06;;;;;;;1.00;1.00;;;;;;;13.87;42.32;101577.88;6041427;23;20368;-89
2023/12/30 09:03:31;;;;;;;0.60;0.60;;;;;;;13.99;42.34;101575.69;6063618;23;20819;-86
2023/12/30 09:05:57;;;;;;;0.60;0.50;;;;;;;14.06;42.23;101576.66;6047223;23;20399;-85
2023/12/30 09:08:25;;;;;;;0.32;0.32;;;;;;;14.03;42.76;101569.00;6052501;23;20704;-90
2023/12/30 09:10:51;;;;;;;0.20;0.20;;;;;;;14.15;42.43;101582.78;6042087;23;20394;-88
2023/12/30 09:13:17;;;;;;;0.70;0.60;;;;;;;14.21;42.43;101570.59;6068024;23;20360;-90
2023/12/30 09:15:43;;;;;;;0.50;0.50;;;;;;;14.30;42.34;101572.22;6045426;23;20444;-91
2023/12/30 09:18:12;;;;;;;0.10;0.10;;;;;;;14.38;41.95;101574.03;6051949;23;20439;-94
2023/12/30 09:20:38;;;;;;;0.50;0.50;;;;;;;14.41;42.07;101555.00;6051853;23;20403;-92
2023/12/30 09:23:07;;;;;;;0.63;0.63;;;;;;;14.52;41.69;101563.44;6052928;23;20368;-93
2023/12/30 09:25:32;;;;;;;0.22;0.22;;;;;;;14.62;41.64;101557.94;6075811;23;20367;-90
2023/12/30 09:27:58;;;;;;;0.20;0.20;;;;;;;14.60;41.90;101554.56;6072569;23;20391;-92
2023/12/30 09:30:24;;;;;;;0.60;0.60;;;;;;;14.46;41.73;101542.00;6050708;23;20461;-90
2023/12/30 09:32:50;;;;;;;0.30;0.30;;;;;;;14.57;41.68;101543.41;6070329;23;20439;-93
2023/12/30 09:35:16;;;;;;;0.35;0.35;;;;;;;14.68;41.46;101535.03;6052393;23;20374;-86
2023/12/30 09:37:41;;;;;;;0.20;0.20;;;;;;;14.85;41.11;101527.72;6065996;23;20442;-87
2023/12/30 09:40:08;;;;;;;0.60;0.40;;;;;;;14.87;41.13;101523.03;6063742;23;20379;-88
2023/12/30 09:42:37;;;;;;;0.25;0.22;;;;;;;14.89;40.86;101529.88;6041858;23;20380;-89
2023/12/30 09:45:04;;;;;;;0.50;0.47;;;;;;;14.79;40.75;101518.59;6064629;23;20443;-89
2023/12/30 09:47:32;;;;;;;0.50;0.50;;;;;;;14.85;41.01;101531.22;6050706;23;20355;-87
2023/12/30 09:50:03;;;;;;;1.37;1.00;;;;;;;14.95;40.89;101523.00;6083858;23;20375;-90
2023/12/30 09:52:29;;;;;;;0.50;0.50;;;;;;;14.99;40.91;101518.94;6059971;23;20371;-88
2023/12/30 09:54:54;;;;;;;0.53;0.33;;;;;;;15.05;40.44;101509.38;6067486;23;20378;-89
2023/12/30 09:57:20;;;;;;;0.40;0.40;;;;;;;15.05;40.07;101520.06;6065954;23;20502;-89
2023/12/30 09:59:56;;;;;;;0.35;0.35;;;;;;;15.32;40.15;101521.31;6065317;23;20450;-89
2023/12/30 10:02:22;;;;;;;0.30;0.30;;;;;;;15.33;40.22;101511.50;6065760;23;20363;-88
2023/12/30 10:04:49;;;;;;;0.30;0.30;;;;;;;15.30;40.18;101507.31;6065774;23;20434;-88
2023/12/30 10:07:16;;;;;;;0.40;0.40;;;;;;;15.35;40.41;101507.63;6066205;23;20363;-87
2023/12/30 10:09:45;;;;;;;0.10;0.10;;;;;;;15.37;39.97;101516.28;6070843;23;20446;-89
2023/12/30 10:12:11;;;;;;;0.35;0.35;;;;;;;15.48;39.93;101510.50;6080730;23;20367;-89
2023/12/30 10:14:37;;;;;;;0.10;0.10;;;;;;;15.62;40.13;101510.69;6048911;23;20370;-88
2023/12/30 10:17:06;;;;;;;0.20;0.20;;;;;;;15.70;39.95;101504.41;6062949;23;20364;-88
2023/12/30 10:19:32;;;;;;;0.30;0.30;;;;;;;15.86;39.55;101498.91;6038561;23;20490;-87
2023/12/30 10:21:58;;;;;;;0.30;0.30;;;;;;;15.94;39.29;101506.03;6063771;23;20398;-87
2023/12/30 10:24:24;;;;;;;0.25;0.25;;;;;;;15.93;39.30;101501.69;6063757;23;20371;-87
2023/12/30 10:26:52;;;;;;;0.70;0.60;;;;;;;15.88;39.37;101494.19;6042244;23;20367;-90
2023/12/30 10:29:17;;;;;;;0.40;0.40;;;;;;;15.86;39.10;101490.88;6065926;23;20378;-86
2023/12/30 10:31:43;;;;;;;0.50;0.50;;;;;;;15.98;38.92;101484.06;6064827;23;20367;-87
2023/12/30 10:34:09;;;;;;;0.40;0.40;;;;;;;15.86;38.85;101482.88;6064343;23;20442;-87
2023/12/30 10:36:36;;;;;;;0.10;0.10;;;;;;;15.96;38.86;101482.59;6064321;23;20760;-87
2023/12/30 10:39:03;;;;;;;0.20;0.20;;;;;;;16.08;38.91;101485.59;6064589;23;20462;-87
2023/12/30 10:41:29;;;;;;;0.30;0.30;;;;;;;15.86;38.38;101488.22;6040234;23;20398;-87
2023/12/30 10:43:55;;;;;;;0.47;0.47;;;;;;;15.90;38.81;101481.50;6066071;23;20406;-87
2023/12/30 10:46:25;;;;;;;0.20;0.20;;;;;;;15.89;38.88;101485.19;6063252;23;20367;-87
2023/12/30 10:48:58;;;;;;;1.00;0.90;;;;;;;15.96;38.79;101485.25;6064836;23;20708;-87
2023/12/30 10:51:26;;;;;;;0.40;0.40;;;;;;;16.14;38.92;101475.00;6042431;23;20377;-88
2023/12/30 10:54:20;;;;;;;0.80;0.40;;;;;;;16.13;38.42;101480.53;6041285;23;20368;-87
2023/12/30 10:56:57;;;;;;;0.25;0.25;;;;;;;16.02;39.08;101463.13;6062087;23;22862;-84
2023/12/30 10:59:27;;;;;;;0.20;0.20;;;;;;;16.19;38.98;101469.91;6068670;23;20385;-87
2023/12/30 11:01:55;;;;;;;0.10;0.10;;;;;;;16.03;38.85;101462.94;6043373;23;20375;-88
2023/12/30 11:04:25;;;;;;;0.20;0.20;;;;;;;16.24;38.74;101456.81;6068557;23;20406;-85
2023/12/30 11:06:59;;;;;;;0.20;0.20;;;;;;;16.28;38.40;101451.03;6069070;23;20429;-88
2023/12/30 11:09:29;;;;;;;0.10;0.10;;;;;;;16.45;38.71;101441.75;6064409;23;20359;-88
2023/12/30 11:12:00;;;;;;;0.17;0.17;;;;;;;16.42;38.19;101447.50;6042515;23;20379;-88
2023/12/30 11:14:25;;;;;;;0.10;0.10;;;;;;;16.34;38.30;101442.28;6039556;23;20378;-88
2023/12/30 11:16:52;;;;;;;0.20;0.20;;;;;;;16.43;38.53;101444.63;6062971;23;20450;-88
2023/12/30 11:19:40;;;;;;;0.20;0.20;;;;;;;16.40;38.24;101449.53;6064838;23;20395;-91
2023/12/30 11:22:10;;;;;;;0.60;0.40;;;;;;;16.60;38.26;101453.25;6048982;23;20423;-90
2023/12/30 11:24:46;;;;;;;0.20;0.20;;;;;;;16.62;38.31;101439.69;6090098;23;20446;-90